sensor_id;sensor_type;location;lat;lon;timestamp;pressure;altitude;pressure_sealevel;temperature;humidity
57192;BME280;43052;52.588;13.396;2024-03-23T08:05:05;99972.81;;;8.60;81.41
57192;BME280;43052;52.588;13.396;2024-03-23T08:07:31;99971.13;;;8.52;81.53
57192;BME280;43052;52.588;13.396;2024-03-23T08:09:57;99966.03;;;8.39;81.87
57192;BME280;43052;52.588;13.396;2024-03-23T08:12:24;99966.19;;;8.24;82.03
57192;BME280;43052;52.588;13.396;2024-03-23T08:14:53;99958.44;;;8.11;81.78
57192;BME280;43052;52.588;13.396;2024-03-23T08:17:18;99949.88;;;7.98;81.98
57192;BME280;43052;52.588;13.396;2024-03-23T08:19:44;99967.25;;;7.95;82.18
57192;BME280;43052;52.588;13.396;2024-03-23T08:22:10;99967.31;;;7.86;82.00
57192;BME280;43052;52.588;13.396;2024-03-23T08:24:35;99960.44;;;7.75;82.57
57192;BME280;43052;52.588;13.396;2024-03-23T08:27:04;99962.22;;;7.72;83.17
57192;BME280;43052;52.588;13.396;2024-03-23T08:29:30;99963.09;;;7.67;83.60
57192;BME280;43052;52.588;13.396;2024-03-23T08:31:55;99945.81;;;7.62;84.07
57192;BME280;43052;52.588;13.396;2024-03-23T08:34:30;99943.25;;;7.51;83.93
57192;BME280;43052;52.588;13.396;2024-03-23T08:36:55;99950.28;;;7.35;84.80
57192;BME280;43052;52.588;13.396;2024-03-23T08:39:29;99943.38;;;7.28;85.03
57192;BME280;43052;52.588;13.396;2024-03-23T08:41:54;99952.00;;;7.34;85.19
57192;BME280;43052;52.588;13.396;2024-03-23T08:44:20;99945.97;;;7.29;85.14
57192;BME280;43052;52.588;13.396;2024-03-23T08:46:45;99955.53;;;7.22;84.75
57192;BME280;43052;52.588;13.396;2024-03-23T08:49:11;99957.34;;;7.10;85.02
57192;BME280;43052;52.588;13.396;2024-03-23T08:51:38;99953.03;;;7.07;84.28
57192;BME280;43052;52.588;13.396;2024-03-23T08:54:04;99964.28;;;7.06;84.03
57192;BME280;43052;52.588;13.396;2024-03-23T08:56:29;99961.69;;;7.04;84.06
57192;BME280;43052;52.588;13.396;2024-03-23T08:58:56;99959.97;;;7.00;84.12
57192;BME280;43052;52.588;13.396;2024-03-23T09:01:23;99971.19;;;7.09;83.65
57192;BME280;43052;52.588;13.396;2024-03-23T09:04:11;99972.94;;;7.05;83.19
57192;BME280;43052;52.588;13.396;2024-03-23T09:06:48;99972.09;;;7.06;82.63
57192;BME280;43052;52.588;13.396;2024-03-23T09:10:28;99958.28;;;6.88;82.30
57192;BME280;43052;52.588;13.396;2024-03-23T09:13:01;99954.81;;;6.83;82.41
57192;BME280;43052;52.588;13.396;2024-03-23T09:15:27;99956.56;;;6.83;82.94
57192;BME280;43052;52.588;13.396;2024-03-23T09:17:52;99944.44;;;6.82;82.96
57192;BME280;43052;52.588;13.396;2024-03-23T09:20:23;99963.47;;;6.88;82.71
57192;BME280;43052;52.588;13.396;2024-03-23T09:27:15;99972.19;;;6.72;82.04
57192;BME280;43052;52.588;13.396;2024-03-23T09:29:47;99960.06;;;6.68;82.69
57192;BME280;43052;52.588;13.396;2024-03-23T09:32:18;99968.72;;;6.70;82.33
57192;BME280;43052;52.588;13.396;2024-03-23T09:34:44;99977.41;;;6.63;82.70
57192;BME280;43052;52.588;13.396;2024-03-23T09:37:27;99965.28;;;6.54;82.69
57192;BME280;43052;52.588;13.396;2024-03-23T09:40:13;99982.59;;;6.59;82.58
57192;BME280;43052;52.588;13.396;2024-03-23T09:43:01;99980.00;;;6.63;81.95
57192;BME280;43052;52.588;13.396;2024-03-23T09:45:52;99989.50;;;6.71;81.51
57192;BME280;43052;52.588;13.396;2024-03-23T09:48:23;99994.69;;;6.74;81.57
57192;BME280;43052;52.588;13.396;2024-03-23T09:51:02;99964.41;;;6.67;81.60
57192;BME280;43052;52.588;13.396;2024-03-23T09:53:27;99987.75;;;6.86;80.84
57192;BME280;43052;52.588;13.396;2024-03-23T09:55:56;99992.06;;;6.93;79.93
57192;BME280;43052;52.588;13.396;2024-03-23T09:58:23;99989.50;;;6.82;79.98
57192;BME280;43052;52.588;13.396;2024-03-23T10:00:49;100003.34;;;6.81;79.67
57192;BME280;43052;52.588;13.396;2024-03-23T10:03:59;100018.09;;;6.70;78.54
57192;BME280;43052;52.588;13.396;2024-03-23T10:06:55;100006.88;;;6.46;77.56
57192;BME280;43052;52.588;13.396;2024-03-23T10:09:50;100018.13;;;6.30;78.09
57192;BME280;43052;52.588;13.396;2024-03-23T10:12:51;100015.50;;;6.19;78.60
57192;BME280;43052;52.588;13.396;2024-03-23T10:15:25;100008.59;;;6.19;78.67
57192;BME280;43052;52.588;13.396;2024-03-23T10:17:54;100033.69;;;6.33;79.27
57192;BME280;43052;52.588;13.396;2024-03-23T10:20:23;100034.56;;;6.39;79.52
57192;BME280;43052;52.588;13.396;2024-03-23T10:22:50;100033.69;;;6.51;79.51
57192;BME280;43052;52.588;13.396;2024-03-23T10:25:17;100019.84;;;6.55;79.54
57192;BME280;43052;52.588;13.396;2024-03-23T10:27:43;100025.91;;;6.65;79.60
57192;BME280;43052;52.588;13.396;2024-03-23T10:30:11;100048.38;;;6.89;79.72
57192;BME280;43052;52.588;13.396;2024-03-23T10:32:37;100035.38;;;6.93;80.02
57192;BME280;43052;52.588;13.396;2024-03-23T10:35:17;100050.09;;;7.00;80.39
57192;BME280;43052;52.588;13.396;2024-03-23T10:37:51;100040.56;;;7.00;80.53
57192;BME280;43052;52.588;13.396;2024-03-23T10:40:22;100045.72;;;7.19;79.96
57192;BME280;43052;52.588;13.396;2024-03-23T10:43:27;100047.44;;;7.25;79.91
57192;BME280;43052;52.588;13.396;2024-03-23T10:45:52;100050.88;;;7.33;79.97
57192;BME280;43052;52.588;13.396;2024-03-23T10:48:18;100034.38;;;7.32;80.09
57192;BME280;43052;52.588;13.396;2024-03-23T10:50:45;100033.53;;;7.35;80.50
57192;BME280;43052;52.588;13.396;2024-03-23T10:53:25;100043.88;;;7.47;80.88
57192;BME280;43052;52.588;13.396;2024-03-23T10:55:54;100023.09;;;7.41;80.62
57192;BME280;43052;52.588;13.396;2024-03-23T10:58:24;100042.94;;;7.59;80.53
57192;BME280;43052;52.588;13.396;2024-03-23T11:00:52;100026.44;;;7.65;79.80
57192;BME280;43052;52.588;13.396;2024-03-23T11:03:33;100039.44;;;7.68;80.18
57192;BME280;43052;52.588;13.396;2024-03-23T11:05:59;100030.69;;;7.81;79.63
57192;BME280;43052;52.588;13.396;2024-03-23T11:08:32;100045.31;;;8.03;78.30
57192;BME280;43052;52.588;13.396;2024-03-23T11:11:18;100045.19;;;8.23;77.90
57192;BME280;43052;52.588;13.396;2024-03-23T11:13:48;100047.63;;;8.43;77.48
57192;BME280;43052;52.588;13.396;2024-03-23T11:16:28;100044.00;;;8.64;76.64
57192;BME280;43052;52.588;13.396;2024-03-23T11:19:33;100048.28;;;8.71;76.43
57192;BME280;43052;52.588;13.396;2024-03-23T11:22:00;100037.00;;;8.71;76.67
57192;BME280;43052;52.588;13.396;2024-03-23T11:24:26;100041.25;;;8.83;76.49
57192;BME280;43052;52.588;13.396;2024-03-23T11:26:52;100036.78;;;8.94;75.77
57192;BME280;43052;52.588;13.396;2024-03-23T11:29:18;100031.53;;;8.99;75.43
57192;BME280;43052;52.588;13.396;2024-03-23T11:31:49;100030.66;;;8.95;74.83
57192;BME280;43052;52.588;13.396;2024-03-23T11:34:19;100037.66;;;8.91;75.02
57192;BME280;43052;52.588;13.396;2024-03-23T11:36:46;100021.91;;;9.04;74.87
57192;BME280;43052;52.588;13.396;2024-03-23T11:39:16;100032.19;;;9.16;74.48
57192;BME280;43052;52.588;13.396;2024-03-23T11:41:50;100044.25;;;9.28;74.13
57192;BME280;43052;52.588;13.396;2024-03-23T11:44:23;100049.13;;;9.56;72.81
57192;BME280;43052;52.588;13.396;2024-03-23T11:46:50;100045.22;;;9.88;71.94
57192;BME280;43052;52.588;13.396;2024-03-23T11:49:27;100058.69;;;10.19;71.12
57192;BME280;43052;52.588;13.396;2024-03-23T11:51:56;100053.19;;;10.37;69.89
57192;BME280;43052;52.588;13.396;2024-03-23T11:54:23;100055.66;;;10.49;69.82
57192;BME280;43052;52.588;13.396;2024-03-23T11:56:59;100056.19;;;10.70;69.17
57192;BME280;43052;52.588;13.396;2024-03-23T11:59:37;100053.31;;;10.84;68.36
57192;BME280;43052;52.588;13.396;2024-03-23T12:02:11;100059.06;;;11.03;67.47
57192;BME280;43052;52.588;13.396;2024-03-23T12:04:37;100071.34;;;10.97;67.37
57192;BME280;43052;52.588;13.396;2024-03-23T12:07:14;100067.28;;;10.81;66.71
57192;BME280;43052;52.588;13.396;2024-03-23T12:09:41;100054.38;;;10.72;67.21
57192;BME280;43052;52.588;13.396;2024-03-23T12:12:13;100059.00;;;10.57;67.03
57192;BME280;43052;52.588;13.396;2024-03-23T12:14:40;100066.16;;;10.44;67.62
57192;BME280;43052;52.588;13.396;2024-03-23T12:17:13;100064.41;;;10.46;68.05
57192;BME280;43052;52.588;13.396;2024-03-23T12:19:39;100065.28;;;10.45;68.19
57192;BME280;43052;52.588;13.396;2024-03-23T12:22:05;100056.88;;;10.23;68.28
57192;BME280;43052;52.588;13.396;2024-03-23T12:24:31;100047.38;;;10.17;68.58
57192;BME280;43052;52.588;13.396;2024-03-23T12:27:01;100038.78;;;10.11;67.65
57192;BME280;43052;52.588;13.396;2024-03-23T12:29:34;100052.56;;;10.19;68.06
57192;BME280;43052;52.588;13.396;2024-03-23T12:32:02;100046.75;;;10.03;68.75
57192;BME280;43052;52.588;13.396;2024-03-23T12:34:28;100046.56;;;10.14;69.02
57192;BME280;43052;52.588;13.396;2024-03-23T12:49:52;100030.59;;;11.31;66.00
57192;BME280;43052;52.588;13.396;2024-03-23T12:52:18;100028.53;;;11.47;65.79
57192;BME280;43052;52.588;13.396;2024-03-23T12:54:46;100035.13;;;11.67;64.87
57192;BME280;43052;52.588;13.396;2024-03-23T12:57:12;100014.09;;;11.70;64.38
57192;BME280;43052;52.588;13.396;2024-03-23T12:59:47;100031.53;;;11.71;63.87
57192;BME280;43052;52.588;13.396;2024-03-23T13:02:18;100035.81;;;11.73;63.88
57192;BME280;43052;52.588;13.396;2024-03-23T13:04:44;100027.66;;;11.89;62.75
57192;BME280;43052;52.588;13.396;2024-03-23T13:07:10;100024.94;;;11.92;62.48
57192;BME280;43052;52.588;13.396;2024-03-23T13:09:35;100025.72;;;11.96;61.81
57192;BME280;43052;52.588;13.396;2024-03-23T13:12:01;100022.25;;;11.98;60.23
57192;BME280;43052;52.588;13.396;2024-03-23T13:14:27;100030.44;;;11.81;60.03
57192;BME280;43052;52.588;13.396;2024-03-23T13:17:00;100037.16;;;11.52;60.85
57192;BME280;43052;52.588;13.396;2024-03-23T13:19:27;100044.13;;;11.53;61.70
57192;BME280;43052;52.588;13.396;2024-03-23T13:21:59;100042.47;;;11.48;61.08
57192;BME280;43052;52.588;13.396;2024-03-23T13:24:25;100020.38;;;11.20;61.62
57192;BME280;43052;52.588;13.396;2024-03-23T13:26:52;100028.16;;;11.22;62.25
57192;BME280;43052;52.588;13.396;2024-03-23T13:29:19;100024.72;;;11.21;62.36
57192;BME280;43052;52.588;13.396;2024-03-23T13:31:45;100021.78;;;11.37;62.02
57192;BME280;43052;52.588;13.396;2024-03-23T13:34:10;100019.75;;;11.50;62.07
57192;BME280;43052;52.588;13.396;2024-03-23T13:36:36;100016.34;;;11.46;61.03
57192;BME280;43052;52.588;13.396;2024-03-23T13:39:04;100021.78;;;11.37;61.44
57192;BME280;43052;52.588;13.396;2024-03-23T13:41:43;100009.94;;;11.19;61.82
57192;BME280;43052;52.588;13.396;2024-03-23T13:44:10;100015.59;;;10.95;62.81
57192;BME280;43052;52.588;13.396;2024-03-23T13:46:36;100024.81;;;11.15;63.22
57192;BME280;43052;52.588;13.396;2024-03-23T13:49:02;100008.41;;;11.07;62.41
57192;BME280;43052;52.588;13.396;2024-03-23T13:51:28;100021.91;;;10.85;62.75
57192;BME280;43052;52.588;13.396;2024-03-23T13:53:54;100019.63;;;10.66;62.78
57192;BME280;43052;52.588;13.396;2024-03-23T13:56:28;100024.06;;;10.60;63.52
57192;BME280;43052;52.588;13.396;2024-03-23T13:59:01;100031.41;;;10.89;63.93
57192;BME280;43052;52.588;13.396;2024-03-23T14:01:28;100023.88;;;11.19;63.23
57192;BME280;43052;52.588;13.396;2024-03-23T14:03:55;100031.34;;;11.38;62.94
57192;BME280;43052;52.588;13.396;2024-03-23T14:06:20;100021.13;;;11.25;62.79
57192;BME280;43052;52.588;13.396;2024-03-23T14:08:46;100029.91;;;11.23;62.68
57192;BME280;43052;52.588;13.396;2024-03-23T14:11:14;100030.00;;;11.18;62.37
57192;BME280;43052;52.588;13.396;2024-03-23T14:13:40;100029.94;;;11.20;62.08
57192;BME280;43052;52.588;13.396;2024-03-23T14:16:06;100037.44;;;10.94;62.46
57192;BME280;43052;52.588;13.396;2024-03-23T14:18:31;100038.72;;;10.70;62.83
57192;BME280;43052;52.588;13.396;2024-03-23T14:21:00;100057.34;;;10.53;63.69
57192;BME280;43052;52.588;13.396;2024-03-23T14:23:27;100049.13;;;10.18;64.40
57192;BME280;43052;52.588;13.396;2024-03-23T14:25:55;100055.44;;;10.03;65.11
57192;BME280;43052;52.588;13.396;2024-03-23T14:28:22;100065.94;;;10.00;65.67
57192;BME280;43052;52.588;13.396;2024-03-23T14:30:50;100068.78;;;9.83;65.94
57192;BME280;43052;52.588;13.396;2024-03-23T14:34:04;100078.72;;;9.53;67.26
57192;BME280;43052;52.588;13.396;2024-03-23T14:36:16;100086.53;;;8.69;66.49
57192;BME280;43052;52.588;13.396;2024-03-23T14:38:47;100100.91;;;7.97;68.25
57192;BME280;43052;52.588;13.396;2024-03-23T14:41:13;100099.41;;;7.39;69.40
57192;BME280;43052;52.588;13.396;2024-03-23T14:43:38;100095.16;;;7.00;71.48
57192;BME280;43052;52.588;13.396;2024-03-23T14:46:09;100121.16;;;6.83;72.84
57192;BME280;43052;52.588;13.396;2024-03-23T14:48:35;100093.44;;;6.79;73.32
57192;BME280;43052;52.588;13.396;2024-03-23T14:51:01;100077.00;;;6.71;73.69
57192;BME280;43052;52.588;13.396;2024-03-23T14:53:30;100088.25;;;6.82;73.67
57192;BME280;43052;52.588;13.396;2024-03-23T14:55:56;100083.91;;;6.89;73.83
57192;BME280;43052;52.588;13.396;2024-03-23T14:58:22;100109.03;;;6.98;74.19
57192;BME280;43052;52.588;13.396;2024-03-23T15:00:48;100109.88;;;6.98;74.76
57192;BME280;43052;52.588;13.396;2024-03-23T15:03:14;100106.41;;;7.07;75.28
57192;BME280;43052;52.588;13.396;2024-03-23T15:05:39;100112.47;;;7.20;76.05
57192;BME280;43052;52.588;13.396;2024-03-23T15:08:06;100098.47;;;7.57;76.43
57192;BME280;43052;52.588;13.396;2024-03-23T15:10:36;100087.81;;;8.11;75.93
57192;BME280;43052;52.588;13.396;2024-03-23T15:13:02;100084.13;;;8.48;75.23
57192;BME280;43052;52.588;13.396;2024-03-23T15:15:27;100080.63;;;8.49;74.44
57192;BME280;43052;52.588;13.396;2024-03-23T15:17:55;100075.44;;;8.44;74.17
57192;BME280;43052;52.588;13.396;2024-03-23T15:20:20;100069.41;;;8.34;74.55
57192;BME280;43052;52.588;13.396;2024-03-23T15:22:46;100075.56;;;8.24;74.36
57192;BME280;43052;52.588;13.396;2024-03-23T15:25:11;100065.25;;;8.08;74.82
57192;BME280;43052;52.588;13.396;2024-03-23T15:27:37;100074.94;;;7.81;75.55
57192;BME280;43052;52.588;13.396;2024-03-23T15:30:03;100071.59;;;7.61;76.24
57192;BME280;43052;52.588;13.396;2024-03-23T15:32:33;100066.41;;;7.50;76.76
57192;BME280;43052;52.588;13.396;2024-03-23T15:34:58;100061.22;;;7.41;77.05
57192;BME280;43052;52.588;13.396;2024-03-23T15:37:23;100046.53;;;7.33;77.41
57192;BME280;43052;52.588;13.396;2024-03-23T15:39:49;100050.88;;;7.30;78.04
57192;BME280;43052;52.588;13.396;2024-03-23T15:42:14;100050.91;;;7.22;78.24
57192;BME280;43052;52.588;13.396;2024-03-23T15:44:40;100041.38;;;7.19;78.19
57192;BME280;43052;52.588;13.396;2024-03-23T15:47:05;100041.38;;;7.10;78.40
57192;BME280;43052;52.588;13.396;2024-03-23T15:49:31;100037.94;;;7.02;79.08
57192;BME280;43052;52.588;13.396;2024-03-23T15:51:57;100039.69;;;7.01;79.10
57192;BME280;43052;52.588;13.396;2024-03-23T15:54:22;100032.75;;;7.00;79.18
57192;BME280;43052;52.588;13.396;2024-03-23T15:56:48;100041.44;;;7.02;79.46
57192;BME280;43052;52.588;13.396;2024-03-23T15:59:13;100031.03;;;6.98;79.65
57192;BME280;43052;52.588;13.396;2024-03-23T16:01:39;100022.38;;;6.99;79.83
57192;BME280;43052;52.588;13.396;2024-03-23T16:04:07;100018.91;;;6.95;80.11
57192;BME280;43052;52.588;13.396;2024-03-23T16:06:33;100025.84;;;6.95;80.48
57192;BME280;43052;52.588;13.396;2024-03-23T16:08:59;100012.00;;;6.94;80.85
57192;BME280;43052;52.588;13.396;2024-03-23T16:11:24;100017.19;;;6.91;80.85
57192;BME280;43052;52.588;13.396;2024-03-23T16:13:50;100014.59;;;6.89;80.61
57192;BME280;43052;52.588;13.396;2024-03-23T16:16:19;100011.97;;;6.88;80.87
57192;BME280;43052;52.588;13.396;2024-03-23T16:18:52;100012.88;;;6.88;80.73
57192;BME280;43052;52.588;13.396;2024-03-23T16:21:17;100007.66;;;6.90;80.78
57192;BME280;43052;52.588;13.396;2024-03-23T16:23:45;100007.66;;;6.85;80.59
57192;BME280;43052;52.588;13.396;2024-03-23T16:26:11;100007.69;;;6.82;80.61
57192;BME280;43052;52.588;13.396;2024-03-23T16:28:38;99995.56;;;6.81;80.42
57192;BME280;43052;52.588;13.396;2024-03-23T16:31:04;100005.09;;;6.76;80.14
57192;BME280;43052;52.588;13.396;2024-03-23T16:33:32;100006.81;;;6.68;80.15
57192;BME280;43052;52.588;13.396;2024-03-23T16:36:05;100003.38;;;6.64;80.09
57192;BME280;43052;52.588;13.396;2024-03-23T16:38:37;100006.84;;;6.62;79.54
57192;BME280;43052;52.588;13.396;2024-03-23T16:41:10;100005.09;;;6.57;79.62
57192;BME280;43052;52.588;13.396;2024-03-23T16:43:38;100005.13;;;6.56;79.60
57192;BME280;43052;52.588;13.396;2024-03-23T16:46:08;100004.25;;;6.52;79.44
57192;BME280;43052;52.588;13.396;2024-03-23T16:48:41;100005.13;;;6.47;79.49
57192;BME280;43052;52.588;13.396;2024-03-23T16:51:08;99998.22;;;6.38;79.35
57192;BME280;43052;52.588;13.396;2024-03-23T16:53:34;100006.00;;;6.38;79.35
57192;BME280;43052;52.588;13.396;2024-03-23T16:56:01;100008.59;;;6.33;79.55
57192;BME280;43052;52.588;13.396;2024-03-23T16:58:28;100006.88;;;6.24;79.14
57192;BME280;43052;52.588;13.396;2024-03-23T17:01:20;100005.13;;;6.19;79.47
57192;BME280;43052;52.588;13.396;2024-03-23T17:03:50;100002.53;;;6.14;79.60
57192;BME280;43052;52.588;13.396;2024-03-23T17:06:17;100010.31;;;6.13;79.80
57192;BME280;43052;52.588;13.396;2024-03-23T17:08:45;100004.25;;;6.06;80.00
57192;BME280;43052;52.588;13.396;2024-03-23T17:11:14;100008.53;;;5.97;80.09
57192;BME280;43052;52.588;13.396;2024-03-23T17:13:39;100008.53;;;5.91;80.16
57192;BME280;43052;52.588;13.396;2024-03-23T17:16:05;100011.13;;;5.88;80.15
57192;BME280;43052;52.588;13.396;2024-03-23T17:18:31;100006.78;;;5.79;80.74
57192;BME280;43052;52.588;13.396;2024-03-23T17:20:57;100005.06;;;5.77;80.73
57192;BME280;43052;52.588;13.396;2024-03-23T17:23:28;100013.66;;;5.70;80.98
57192;BME280;43052;52.588;13.396;2024-03-23T17:25:54;100010.19;;;5.60;81.11
57192;BME280;43052;52.588;13.396;2024-03-23T17:28:19;100010.19;;;5.55;81.73
57192;BME280;43052;52.588;13.396;2024-03-23T17:30:45;100006.72;;;5.50;81.68
57192;BME280;43052;52.588;13.396;2024-03-23T17:33:16;100022.28;;;5.50;82.17
57192;BME280;43052;52.588;13.396;2024-03-23T17:35:45;100024.88;;;5.50;82.42
57192;BME280;43052;52.588;13.396;2024-03-23T17:38:11;100023.09;;;5.38;82.38
57192;BME280;43052;52.588;13.396;2024-03-23T17:40:37;100023.91;;;5.31;82.60
57192;BME280;43052;52.588;13.396;2024-03-23T17:43:05;100026.50;;;5.25;82.87
57192;BME280;43052;52.588;13.396;2024-03-23T17:45:31;100029.94;;;5.22;83.20
57192;BME280;43052;52.588;13.396;2024-03-23T17:47:56;100031.66;;;5.18;83.71
57192;BME280;43052;52.588;13.396;2024-03-23T17:50:22;100043.75;;;5.21;83.95
57192;BME280;43052;52.588;13.396;2024-03-23T17:52:47;100048.94;;;5.15;84.02
57192;BME280;43052;52.588;13.396;2024-03-23T17:55:13;100037.66;;;5.08;84.30
57192;BME280;43052;52.588;13.396;2024-03-23T17:57:39;100048.88;;;5.07;84.43
57192;BME280;43052;52.588;13.396;2024-03-23T18:00:06;100061.84;;;5.07;84.93
57192;BME280;43052;52.588;13.396;2024-03-23T18:02:37;100067.00;;;5.07;84.86
57192;BME280;43052;52.588;13.396;2024-03-23T18:05:03;100065.31;;;5.09;85.13
57192;BME280;43052;52.588;13.396;2024-03-23T18:07:32;100080.09;;;5.26;85.63
57192;BME280;43052;52.588;13.396;2024-03-23T18:09:58;100083.66;;;5.46;85.69
57192;BME280;43052;52.588;13.396;2024-03-23T18:12:24;100084.59;;;5.64;85.50
57192;BME280;43052;52.588;13.396;2024-03-23T18:14:50;100091.56;;;5.88;85.23
57192;BME280;43052;52.588;13.396;2024-03-23T18:17:16;100099.44;;;6.04;84.78
57192;BME280;43052;52.588;13.396;2024-03-23T18:19:41;100096.88;;;6.15;83.96
57192;BME280;43052;52.588;13.396;2024-03-23T18:22:07;100119.41;;;6.25;83.13
57192;BME280;43052;52.588;13.396;2024-03-23T18:24:33;100114.16;;;6.19;82.26
57192;BME280;43052;52.588;13.396;2024-03-23T18:26:58;100112.44;;;6.16;81.56
57192;BME280;43052;52.588;13.396;2024-03-23T18:29:24;100112.41;;;6.08;81.01
57192;BME280;43052;52.588;13.396;2024-03-23T18:31:50;100121.94;;;6.08;80.93
57192;BME280;43052;52.588;13.396;2024-03-23T18:34:16;100115.84;;;5.98;80.57
57192;BME280;43052;52.588;13.396;2024-03-23T18:36:42;100128.78;;;5.92;80.45
57192;BME280;43052;52.588;13.396;2024-03-23T18:39:07;100115.75;;;5.83;80.65
57192;BME280;43052;52.588;13.396;2024-03-23T18:41:33;100125.28;;;5.84;81.33
57192;BME280;43052;52.588;13.396;2024-03-23T18:43:59;100116.66;;;5.83;81.40
57192;BME280;43052;52.588;13.396;2024-03-23T18:46:27;100109.72;;;5.82;81.49
57192;BME280;43052;52.588;13.396;2024-03-23T18:48:54;100126.19;;;5.89;81.72
57192;BME280;43052;52.588;13.396;2024-03-23T18:51:21;100114.91;;;5.88;81.90
57192;BME280;43052;52.588;13.396;2024-03-23T18:53:46;100108.00;;;5.86;81.79
57192;BME280;43052;52.588;13.396;2024-03-23T18:56:12;100114.91;;;5.88;81.28
57192;BME280;43052;52.588;13.396;2024-03-23T18:58:40;100120.16;;;5.94;80.97
57192;BME280;43052;52.588;13.396;2024-03-23T19:01:05;100119.25;;;5.95;80.53
57192;BME280;43052;52.588;13.396;2024-03-23T19:03:32;100118.44;;;5.98;79.38
57192;BME280;43052;52.588;13.396;2024-03-23T19:05:59;100114.06;;;5.88;78.83
57192;BME280;43052;52.588;13.396;2024-03-23T19:08:26;100126.16;;;5.87;78.75
57192;BME280;43052;52.588;13.396;2024-03-23T19:10:55;100121.81;;;5.86;78.73
57192;BME280;43052;52.588;13.396;2024-03-23T19:13:22;100108.00;;;5.79;78.82
57192;BME280;43052;52.588;13.396;2024-03-23T19:15:48;100119.22;;;5.80;78.63
57192;BME280;43052;52.588;13.396;2024-03-23T19:18:14;100118.31;;;5.72;78.63
57192;BME280;43052;52.588;13.396;2024-03-23T19:20:40;100112.25;;;5.68;79.06
57192;BME280;43052;52.588;13.396;2024-03-23T19:23:06;100119.19;;;5.68;78.96
57192;BME280;43052;52.588;13.396;2024-03-23T19:25:33;100113.13;;;5.69;79.05
57192;BME280;43052;52.588;13.396;2024-03-23T19:27:59;100127.00;;;5.77;79.12
57192;BME280;43052;52.588;13.396;2024-03-23T19:30:27;100109.69;;;5.71;79.21
57192;BME280;43052;52.588;13.396;2024-03-23T19:32:53;100109.69;;;5.73;79.39
57192;BME280;43052;52.588;13.396;2024-03-23T19:35:20;100110.59;;;5.79;79.58
57192;BME280;43052;52.588;13.396;2024-03-23T19:37:48;100105.38;;;5.76;79.92
57192;BME280;43052;52.588;13.396;2024-03-23T19:40:14;100097.59;;;5.78;79.77
57192;BME280;43052;52.588;13.396;2024-03-23T19:42:39;100095.88;;;5.77;79.66
57192;BME280;43052;52.588;13.396;2024-03-23T19:45:05;100102.78;;;5.75;79.32
57192;BME280;43052;52.588;13.396;2024-03-23T19:47:30;100091.47;;;5.65;79.23
57192;BME280;43052;52.588;13.396;2024-03-23T19:49:56;100115.69;;;5.59;79.53
57192;BME280;43052;52.588;13.396;2024-03-23T19:52:21;100107.81;;;5.41;79.57
57192;BME280;43052;52.588;13.396;2024-03-23T19:54:47;100097.34;;;5.22;79.81
57192;BME280;43052;52.588;13.396;2024-03-23T19:57:12;100099.78;;;5.00;79.98
57192;BME280;43052;52.588;13.396;2024-03-23T19:59:38;100104.88;;;4.86;80.41
57192;BME280;43052;52.588;13.396;2024-03-23T20:02:04;100098.69;;;4.67;80.59
57192;BME280;43052;52.588;13.396;2024-03-23T20:04:29;100117.63;;;4.60;80.99
57192;BME280;43052;52.588;13.396;2024-03-23T20:06:54;100102.78;;;4.42;81.98
57192;BME280;43052;52.588;13.396;2024-03-23T20:09:25;100112.28;;;4.40;82.69
57192;BME280;43052;52.588;13.396;2024-03-23T20:12:03;100101.03;;;4.38;83.03
57192;BME280;43052;52.588;13.396;2024-03-23T20:14:36;100105.38;;;4.42;83.29
57192;BME280;43052;52.588;13.396;2024-03-23T20:17:17;100103.72;;;4.47;83.29
57192;BME280;43052;52.588;13.396;2024-03-23T20:19:46;100103.69;;;4.46;83.90
57192;BME280;43052;52.588;13.396;2024-03-23T20:22:13;100102.00;;;4.51;84.13
57192;BME280;43052;52.588;13.396;2024-03-23T20:24:38;100104.72;;;4.66;84.08
57192;BME280;43052;52.588;13.396;2024-03-23T20:27:05;100101.28;;;4.67;84.13
57192;BME280;43052;52.588;13.396;2024-03-23T20:29:30;100108.16;;;4.65;83.94
57192;BME280;43052;52.588;13.396;2024-03-23T20:31:56;100102.88;;;4.50;84.08
57192;BME280;43052;52.588;13.396;2024-03-23T20:34:21;100113.13;;;4.39;84.23
57192;BME280;43052;52.588;13.396;2024-03-23T20:36:47;100115.63;;;4.31;84.13
57192;BME280;43052;52.588;13.396;2024-03-23T20:39:13;100111.22;;;4.19;84.32
57192;BME280;43052;52.588;13.396;2024-03-23T20:41:39;100106.69;;;4.00;84.66
57192;BME280;43052;52.588;13.396;2024-03-23T20:44:06;100111.75;;;3.89;84.96
57192;BME280;43052;52.588;13.396;2024-03-23T20:46:32;100104.72;;;3.79;85.17
57192;BME280;43052;52.588;13.396;2024-03-23T20:48:57;100124.56;;;3.80;85.64
57192;BME280;43052;52.588;13.396;2024-03-23T20:51:24;100115.78;;;3.65;85.47
57192;BME280;43052;52.588;13.396;2024-03-23T20:53:51;100121.75;;;3.61;85.87
57192;BME280;43052;52.588;13.396;2024-03-23T20:56:17;100116.53;;;3.58;86.30
57192;BME280;43052;52.588;13.396;2024-03-23T20:58:43;100117.41;;;3.58;86.45
57192;BME280;43052;52.588;13.396;2024-03-23T21:01:08;100110.34;;;3.45;86.83
57192;BME280;43052;52.588;13.396;2024-03-23T21:03:35;100119.81;;;3.44;87.36
57192;BME280;43052;52.588;13.396;2024-03-23T21:06:01;100128.41;;;3.42;87.62
57192;BME280;43052;52.588;13.396;2024-03-23T21:08:32;100109.34;;;3.35;87.89
57192;BME280;43052;52.588;13.396;2024-03-23T21:10:58;100107.50;;;3.26;88.20
57192;BME280;43052;52.588;13.396;2024-03-23T21:13:24;100104.91;;;3.23;89.00
57192;BME280;43052;52.588;13.396;2024-03-23T21:15:57;100115.25;;;3.26;89.00
57192;BME280;43052;52.588;13.396;2024-03-23T21:18:31;100103.03;;;3.13;89.32
57192;BME280;43052;52.588;13.396;2024-03-23T21:21:00;100100.44;;;3.11;89.49